sensor_id;sensor_type;location;lat;lon;timestamp;pressure;altitude;pressure_sealevel;temperature;humidity
73817;BME280;62146;53.232;-1.304;2023-04-15T00:01:57;100025.63;;;7.82;100.00
73817;BME280;62146;53.232;-1.304;2023-04-15T00:04:26;100024.81;;;7.82;100.00
73817;BME280;62146;53.232;-1.304;2023-04-15T00:06:53;100025.88;;;7.81;100.00
73817;BME280;62146;53.232;-1.304;2023-04-15T00:09:20;100034.34;;;7.83;100.00
73817;BME280;62146;53.232;-1.304;2023-04-15T00:11:46;100033.19;;;7.79;100.00
73817;BME280;62146;53.232;-1.304;2023-04-15T00:14:13;100042.72;;;7.80;100.00
73817;BME280;62146;53.232;-1.304;2023-04-15T00:16:39;100044.78;;;7.78;100.00
73817;BME280;62146;53.232;-1.304;2023-04-15T00:19:06;100036.63;;;7.79;100.00
73817;BME280;62146;53.232;-1.304;2023-04-15T00:21:33;100046.38;;;7.79;100.00
73817;BME280;62146;53.232;-1.304;2023-04-15T00:24:00;100049.28;;;7.77;100.00
73817;BME280;62146;53.232;-1.304;2023-04-15T00:26:27;100057.97;;;7.78;100.00
73817;BME280;62146;53.232;-1.304;2023-04-15T00:28:53;100061.44;;;7.78;100.00
73817;BME280;62146;53.232;-1.304;2023-04-15T00:31:20;100056.16;;;7.78;100.00
73817;BME280;62146;53.232;-1.304;2023-04-15T00:33:47;100065.91;;;7.78;100.00
73817;BME280;62146;53.232;-1.304;2023-04-15T00:36:14;100059.34;;;7.80;100.00
73817;BME280;62146;53.232;-1.304;2023-04-15T00:38:40;100056.94;;;7.79;100.00
73817;BME280;62146;53.232;-1.304;2023-04-15T00:41:08;100059.25;;;7.75;100.00
73817;BME280;62146;53.232;-1.304;2023-04-15T00:43:35;100058.78;;;7.78;100.00
73817;BME280;62146;53.232;-1.304;2023-04-15T00:46:03;100060.63;;;7.78;100.00
73817;BME280;62146;53.232;-1.304;2023-04-15T00:48:31;100063.47;;;7.76;100.00
73817;BME280;62146;53.232;-1.304;2023-04-15T00:50:58;100060.84;;;7.76;100.00
73817;BME280;62146;53.232;-1.304;2023-04-15T00:53:24;100070.38;;;7.77;100.00
73817;BME280;62146;53.232;-1.304;2023-04-15T00:55:51;100078.50;;;7.76;100.00
73817;BME280;62146;53.232;-1.304;2023-04-15T00:58:18;100076.13;;;7.74;100.00
73817;BME280;62146;53.232;-1.304;2023-04-15T01:00:44;100079.56;;;7.75;100.00
73817;BME280;62146;53.232;-1.304;2023-04-15T01:03:12;100086.66;;;7.74;100.00
73817;BME280;62146;53.232;-1.304;2023-04-15T01:05:39;100095.63;;;7.74;100.00
73817;BME280;62146;53.232;-1.304;2023-04-15T01:08:06;100101.69;;;7.74;100.00
73817;BME280;62146;53.232;-1.304;2023-04-15T01:10:33;100104.34;;;7.74;100.00
73817;BME280;62146;53.232;-1.304;2023-04-15T01:13:01;100108.59;;;7.75;100.00
73817;BME280;62146;53.232;-1.304;2023-04-15T01:15:28;100117.53;;;7.74;100.00
73817;BME280;62146;53.232;-1.304;2023-04-15T01:17:57;100114.09;;;7.74;100.00
73817;BME280;62146;53.232;-1.304;2023-04-15T01:20:24;100119.13;;;7.75;100.00
73817;BME280;62146;53.232;-1.304;2023-04-15T01:22:53;100118.34;;;7.74;100.00
73817;BME280;62146;53.232;-1.304;2023-04-15T01:25:32;100122.56;;;7.75;100.00
73817;BME280;62146;53.232;-1.304;2023-04-15T01:27:59;100134.97;;;7.75;100.00
73817;BME280;62146;53.232;-1.304;2023-04-15T01:30:26;100142.09;;;7.74;100.00
73817;BME280;62146;53.232;-1.304;2023-04-15T01:32:53;100148.16;;;7.75;100.00
73817;BME280;62146;53.232;-1.304;2023-04-15T01:35:19;100148.97;;;7.75;100.00
73817;BME280;62146;53.232;-1.304;2023-04-15T01:37:47;100151.06;;;7.74;100.00
73817;BME280;62146;53.232;-1.304;2023-04-15T01:40:13;100159.97;;;7.73;100.00
73817;BME280;62146;53.232;-1.304;2023-04-15T01:42:40;100156.78;;;7.71;100.00
73817;BME280;62146;53.232;-1.304;2023-04-15T01:45:07;100155.19;;;7.70;100.00
73817;BME280;62146;53.232;-1.304;2023-04-15T01:47:34;100158.63;;;7.70;100.00
73817;BME280;62146;53.232;-1.304;2023-04-15T01:50:01;100166.53;;;7.70;100.00
73817;BME280;62146;53.232;-1.304;2023-04-15T01:52:27;100165.72;;;7.70;100.00
73817;BME280;62146;53.232;-1.304;2023-04-15T01:54:54;100172.00;;;7.69;100.00
73817;BME280;62146;53.232;-1.304;2023-04-15T01:57:20;100178.09;;;7.69;100.00
73817;BME280;62146;53.232;-1.304;2023-04-15T01:59:47;100174.44;;;7.70;100.00
73817;BME280;62146;53.232;-1.304;2023-04-15T02:02:13;100179.94;;;7.69;100.00
73817;BME280;62146;53.232;-1.304;2023-04-15T02:04:40;100189.47;;;7.70;100.00
73817;BME280;62146;53.232;-1.304;2023-04-15T02:07:07;100185.81;;;7.71;100.00
73817;BME280;62146;53.232;-1.304;2023-04-15T02:09:33;100188.44;;;7.71;100.00
73817;BME280;62146;53.232;-1.304;2023-04-15T02:12:00;100196.34;;;7.71;100.00
73817;BME280;62146;53.232;-1.304;2023-04-15T02:14:27;100196.56;;;7.69;100.00
73817;BME280;62146;53.232;-1.304;2023-04-15T02:16:53;100195.75;;;7.69;100.00
73817;BME280;62146;53.232;-1.304;2023-04-15T02:19:20;100197.16;;;7.71;100.00
73817;BME280;62146;53.232;-1.304;2023-04-15T02:21:47;100198.19;;;7.70;100.00
73817;BME280;62146;53.232;-1.304;2023-04-15T02:24:13;100198.19;;;7.70;100.00
73817;BME280;62146;53.232;-1.304;2023-04-15T02:26:40;100211.38;;;7.70;100.00
73817;BME280;62146;53.232;-1.304;2023-04-15T02:29:06;100202.09;;;7.68;100.00
73817;BME280;62146;53.232;-1.304;2023-04-15T02:31:33;100205.53;;;7.68;100.00
73817;BME280;62146;53.232;-1.304;2023-04-15T02:34:02;100209.19;;;7.67;100.00
73817;BME280;62146;53.232;-1.304;2023-04-15T02:36:30;100210.78;;;7.68;100.00
73817;BME280;62146;53.232;-1.304;2023-04-15T02:38:57;100213.44;;;7.68;100.00
73817;BME280;62146;53.232;-1.304;2023-04-15T02:41:24;100218.50;;;7.70;100.00
73817;BME280;62146;53.232;-1.304;2023-04-15T02:43:53;100217.13;;;7.67;100.00
73817;BME280;62146;53.232;-1.304;2023-04-15T02:46:20;100215.94;;;7.63;100.00
73817;BME280;62146;53.232;-1.304;2023-04-15T02:48:48;100220.44;;;7.63;100.00
73817;BME280;62146;53.232;-1.304;2023-04-15T02:51:19;100223.88;;;7.63;100.00
73817;BME280;62146;53.232;-1.304;2023-04-15T02:53:47;100232.59;;;7.64;100.00
73817;BME280;62146;53.232;-1.304;2023-04-15T02:56:14;100235.00;;;7.65;100.00
73817;BME280;62146;53.232;-1.304;2023-04-15T02:58:43;100236.81;;;7.65;100.00
73817;BME280;62146;53.232;-1.304;2023-04-15T03:01:15;100242.34;;;7.63;100.00
73817;BME280;62146;53.232;-1.304;2023-04-15T03:03:42;100246.22;;;7.61;100.00
73817;BME280;62146;53.232;-1.304;2023-04-15T03:06:09;100249.66;;;7.61;100.00
73817;BME280;62146;53.232;-1.304;2023-04-15T03:08:36;100258.41;;;7.62;100.00
73817;BME280;62146;53.232;-1.304;2023-04-15T03:11:03;100255.53;;;7.63;100.00
73817;BME280;62146;53.232;-1.304;2023-04-15T03:13:30;100261.25;;;7.60;100.00
73817;BME280;62146;53.232;-1.304;2023-04-15T03:15:56;100263.69;;;7.62;100.00
73817;BME280;62146;53.232;-1.304;2023-04-15T03:18:23;100274.00;;;7.63;100.00
73817;BME280;62146;53.232;-1.304;2023-04-15T03:20:49;100274.56;;;7.65;100.00
73817;BME280;62146;53.232;-1.304;2023-04-15T03:23:16;100275.59;;;7.64;100.00
73817;BME280;62146;53.232;-1.304;2023-04-15T03:25:43;100286.75;;;7.66;100.00
73817;BME280;62146;53.232;-1.304;2023-04-15T03:28:10;100293.03;;;7.65;100.00
73817;BME280;62146;53.232;-1.304;2023-04-15T03:30:36;100294.09;;;7.64;100.00
73817;BME280;62146;53.232;-1.304;2023-04-15T03:33:03;100298.00;;;7.62;100.00
73817;BME280;62146;53.232;-1.304;2023-04-15T03:35:29;100303.84;;;7.64;100.00
73817;BME280;62146;53.232;-1.304;2023-04-15T03:37:56;100306.47;;;7.64;100.00
73817;BME280;62146;53.232;-1.304;2023-04-15T03:40:22;100304.63;;;7.64;100.00
73817;BME280;62146;53.232;-1.304;2023-04-15T03:42:49;100299.59;;;7.63;100.00
73817;BME280;62146;53.232;-1.304;2023-04-15T03:45:16;100309.34;;;7.62;100.00
73817;BME280;62146;53.232;-1.304;2023-04-15T03:47:42;100304.50;;;7.59;100.00
73817;BME280;62146;53.232;-1.304;2023-04-15T03:50:09;100309.41;;;7.56;100.00
73817;BME280;62146;53.232;-1.304;2023-04-15T03:52:36;100307.66;;;7.50;100.00
73817;BME280;62146;53.232;-1.304;2023-04-15T03:55:03;100309.59;;;7.43;100.00
73817;BME280;62146;53.232;-1.304;2023-04-15T03:57:29;100308.44;;;7.39;100.00
73817;BME280;62146;53.232;-1.304;2023-04-15T03:59:56;100311.69;;;7.35;100.00
73817;BME280;62146;53.232;-1.304;2023-04-15T04:02:23;100318.69;;;7.29;100.00
73817;BME280;62146;53.232;-1.304;2023-04-15T04:04:49;100312.59;;;7.29;100.00
73817;BME280;62146;53.232;-1.304;2023-04-15T04:07:17;100318.91;;;7.28;100.00
73817;BME280;62146;53.232;-1.304;2023-04-15T04:09:43;100322.91;;;7.30;100.00
73817;BME280;62146;53.232;-1.304;2023-04-15T04:12:12;100330.47;;;7.27;100.00
73817;BME280;62146;53.232;-1.304;2023-04-15T04:14:39;100328.44;;;7.29;100.00
73817;BME280;62146;53.232;-1.304;2023-04-15T04:17:06;100335.72;;;7.27;100.00
73817;BME280;62146;53.232;-1.304;2023-04-15T04:19:32;100335.97;;;7.25;100.00
73817;BME280;62146;53.232;-1.304;2023-04-15T04:21:59;100350.97;;;7.25;100.00
73817;BME280;62146;53.232;-1.304;2023-04-15T04:24:26;100357.28;;;7.24;100.00
73817;BME280;62146;53.232;-1.304;2023-04-15T04:26:53;100353.25;;;7.21;100.00
73817;BME280;62146;53.232;-1.304;2023-04-15T04:29:19;100360.38;;;7.21;100.00
73817;BME280;62146;53.232;-1.304;2023-04-15T04:31:46;100362.41;;;7.19;100.00
73817;BME280;62146;53.232;-1.304;2023-04-15T04:34:14;100368.47;;;7.20;100.00
73817;BME280;62146;53.232;-1.304;2023-04-15T04:36:41;100381.09;;;7.18;100.00
73817;BME280;62146;53.232;-1.304;2023-04-15T04:39:07;100391.63;;;7.18;100.00
73817;BME280;62146;53.232;-1.304;2023-04-15T04:41:34;100385.97;;;7.14;100.00
73817;BME280;62146;53.232;-1.304;2023-04-15T04:44:01;100395.50;;;7.15;100.00
73817;BME280;62146;53.232;-1.304;2023-04-15T04:46:27;100393.25;;;7.19;100.00
73817;BME280;62146;53.232;-1.304;2023-04-15T04:48:54;100400.34;;;7.18;100.00
73817;BME280;62146;53.232;-1.304;2023-04-15T04:51:21;100394.28;;;7.18;100.00
73817;BME280;62146;53.232;-1.304;2023-04-15T04:53:47;100400.34;;;7.18;100.00
73817;BME280;62146;53.232;-1.304;2023-04-15T04:56:14;100401.38;;;7.17;100.00
73817;BME280;62146;53.232;-1.304;2023-04-15T04:58:40;100402.41;;;7.16;100.00
73817;BME280;62146;53.232;-1.304;2023-04-15T05:01:07;100403.41;;;7.15;100.00
73817;BME280;62146;53.232;-1.304;2023-04-15T05:03:34;100407.06;;;7.14;100.00
73817;BME280;62146;53.232;-1.304;2023-04-15T05:06:01;100411.78;;;7.12;100.00
73817;BME280;62146;53.232;-1.304;2023-04-15T05:08:31;100412.78;;;7.11;100.00
73817;BME280;62146;53.232;-1.304;2023-04-15T05:10:58;100417.25;;;7.11;100.00
73817;BME280;62146;53.232;-1.304;2023-04-15T05:13:24;100421.16;;;7.08;100.00
73817;BME280;62146;53.232;-1.304;2023-04-15T05:15:51;100431.09;;;7.06;100.00
73817;BME280;62146;53.232;-1.304;2023-04-15T05:18:18;100431.50;;;7.03;100.00
73817;BME280;62146;53.232;-1.304;2023-04-15T05:20:45;100430.72;;;7.03;100.00
73817;BME280;62146;53.232;-1.304;2023-04-15T05:23:12;100436.41;;;7.00;100.00
73817;BME280;62146;53.232;-1.304;2023-04-15T05:25:38;100450.38;;;7.00;100.00
73817;BME280;62146;53.232;-1.304;2023-04-15T05:28:05;100439.28;;;6.98;100.00
73817;BME280;62146;53.232;-1.304;2023-04-15T05:30:32;100447.97;;;6.99;100.00
73817;BME280;62146;53.232;-1.304;2023-04-15T05:32:58;100468.50;;;6.97;100.00
73817;BME280;62146;53.232;-1.304;2023-04-15T05:35:25;100466.66;;;6.97;100.00
73817;BME280;62146;53.232;-1.304;2023-04-15T05:37:52;100472.94;;;6.96;100.00
73817;BME280;62146;53.232;-1.304;2023-04-15T05:40:18;100481.66;;;6.97;100.00
73817;BME280;62146;53.232;-1.304;2023-04-15T05:42:45;100490.38;;;6.97;100.00
73817;BME280;62146;53.232;-1.304;2023-04-15T05:45:12;100491.75;;;7.00;100.00
73817;BME280;62146;53.232;-1.304;2023-04-15T05:47:38;100495.00;;;7.02;100.00
73817;BME280;62146;53.232;-1.304;2023-04-15T05:50:05;100506.13;;;7.04;100.00
73817;BME280;62146;53.232;-1.304;2023-04-15T05:52:32;100506.56;;;7.01;100.00
73817;BME280;62146;53.232;-1.304;2023-04-15T05:54:59;100523.78;;;7.03;100.00
73817;BME280;62146;53.232;-1.304;2023-04-15T05:57:25;100518.31;;;7.05;100.00
73817;BME280;62146;53.232;-1.304;2023-04-15T05:59:52;100525.38;;;7.04;100.00
73817;BME280;62146;53.232;-1.304;2023-04-15T06:02:18;100533.28;;;7.04;100.00
73817;BME280;62146;53.232;-1.304;2023-04-15T06:04:45;100534.94;;;7.05;100.00
73817;BME280;62146;53.232;-1.304;2023-04-15T06:07:12;100542.41;;;7.08;100.00
73817;BME280;62146;53.232;-1.304;2023-04-15T06:09:38;100548.28;;;7.10;100.00
73817;BME280;62146;53.232;-1.304;2023-04-15T06:12:05;100556.56;;;7.14;100.00
73817;BME280;62146;53.232;-1.304;2023-04-15T06:14:32;100556.94;;;7.17;100.00
73817;BME280;62146;53.232;-1.304;2023-04-15T06:16:58;100557.53;;;7.19;100.00
73817;BME280;62146;53.232;-1.304;2023-04-15T06:19:25;100562.81;;;7.19;100.00
73817;BME280;62146;53.232;-1.304;2023-04-15T06:21:51;100567.88;;;7.21;100.00
73817;BME280;62146;53.232;-1.304;2023-04-15T06:24:18;100570.28;;;7.22;100.00
73817;BME280;62146;53.232;-1.304;2023-04-15T06:26:44;100573.53;;;7.24;100.00
73817;BME280;62146;53.232;-1.304;2023-04-15T06:29:11;100579.41;;;7.26;100.00
73817;BME280;62146;53.232;-1.304;2023-04-15T06:31:38;100592.16;;;7.29;100.00
73817;BME280;62146;53.232;-1.304;2023-04-15T06:34:04;100593.56;;;7.31;100.00
73817;BME280;62146;53.232;-1.304;2023-04-15T06:36:31;100593.56;;;7.31;100.00
73817;BME280;62146;53.232;-1.304;2023-04-15T06:38:58;100601.25;;;7.33;100.00
73817;BME280;62146;53.232;-1.304;2023-04-15T06:41:25;100603.66;;;7.34;100.00
73817;BME280;62146;53.232;-1.304;2023-04-15T06:43:51;100606.13;;;7.36;100.00
73817;BME280;62146;53.232;-1.304;2023-04-15T06:46:18;100606.69;;;7.38;100.00
73817;BME280;62146;53.232;-1.304;2023-04-15T06:48:45;100615.41;;;7.38;100.00
73817;BME280;62146;53.232;-1.304;2023-04-15T06:51:11;100608.34;;;7.39;100.00
73817;BME280;62146;53.232;-1.304;2023-04-15T06:53:38;100611.53;;;7.41;100.00
73817;BME280;62146;53.232;-1.304;2023-04-15T06:56:07;100616.81;;;7.41;100.00
73817;BME280;62146;53.232;-1.304;2023-04-15T06:58:35;100620.88;;;7.43;100.00
73817;BME280;62146;53.232;-1.304;2023-04-15T07:01:01;100630.19;;;7.46;100.00
73817;BME280;62146;53.232;-1.304;2023-04-15T07:03:28;100622.88;;;7.47;100.00
73817;BME280;62146;53.232;-1.304;2023-04-15T07:05:58;100635.03;;;7.48;100.00
73817;BME280;62146;53.232;-1.304;2023-04-15T07:08:25;100640.69;;;7.52;100.00
73817;BME280;62146;53.232;-1.304;2023-04-15T07:10:51;100647.38;;;7.54;100.00
73817;BME280;62146;53.232;-1.304;2023-04-15T07:13:19;100649.56;;;7.57;100.00
73817;BME280;62146;53.232;-1.304;2023-04-15T07:15:46;100655.47;;;7.59;100.00
73817;BME280;62146;53.232;-1.304;2023-04-15T07:18:12;100660.31;;;7.62;100.00
73817;BME280;62146;53.232;-1.304;2023-04-15T07:20:39;100664.56;;;7.63;100.00
73817;BME280;62146;53.232;-1.304;2023-04-15T07:23:05;100670.22;;;7.67;100.00
73817;BME280;62146;53.232;-1.304;2023-04-15T07:25:32;100677.91;;;7.68;100.00
73817;BME280;62146;53.232;-1.304;2023-04-15T07:27:58;100671.41;;;7.71;100.00
73817;BME280;62146;53.232;-1.304;2023-04-15T07:30:25;100672.81;;;7.73;100.00
73817;BME280;62146;53.232;-1.304;2023-04-15T07:32:52;100679.72;;;7.74;100.00
73817;BME280;62146;53.232;-1.304;2023-04-15T07:35:18;100681.94;;;7.77;100.00
73817;BME280;62146;53.232;-1.304;2023-04-15T07:37:47;100692.03;;;7.80;100.00
73817;BME280;62146;53.232;-1.304;2023-04-15T07:40:13;100702.16;;;7.83;100.00
73817;BME280;62146;53.232;-1.304;2023-04-15T07:42:41;100708.88;;;7.85;100.00
73817;BME280;62146;53.232;-1.304;2023-04-15T07:45:09;100712.88;;;7.88;100.00
73817;BME280;62146;53.232;-1.304;2023-04-15T07:47:35;100718.78;;;7.90;100.00
73817;BME280;62146;53.232;-1.304;2023-04-15T07:50:02;100734.19;;;7.93;100.00
73817;BME280;62146;53.232;-1.304;2023-04-15T07:52:29;100737.41;;;7.95;100.00
73817;BME280;62146;53.232;-1.304;2023-04-15T07:54:55;100746.75;;;7.97;100.00
73817;BME280;62146;53.232;-1.304;2023-04-15T07:57:22;100740.22;;;8.00;100.00
73817;BME280;62146;53.232;-1.304;2023-04-15T07:59:48;100748.75;;;8.01;100.00
73817;BME280;62146;53.232;-1.304;2023-04-15T08:02:15;100752.00;;;8.03;100.00
73817;BME280;62146;53.232;-1.304;2023-04-15T08:04:42;100764.78;;;8.06;100.00
73817;BME280;62146;53.232;-1.304;2023-04-15T08:07:08;100760.91;;;8.09;100.00
73817;BME280;62146;53.232;-1.304;2023-04-15T08:09:35;100766.56;;;8.12;100.00
73817;BME280;62146;53.232;-1.304;2023-04-15T08:12:02;100780.34;;;8.14;100.00
73817;BME280;62146;53.232;-1.304;2023-04-15T08:14:29;100784.19;;;8.18;100.00
73817;BME280;62146;53.232;-1.304;2023-04-15T08:16:55;100785.59;;;8.21;100.00
73817;BME280;62146;53.232;-1.304;2023-04-15T08:19:22;100784.16;;;8.25;100.00
73817;BME280;62146;53.232;-1.304;2023-04-15T08:21:50;100787.19;;;8.28;100.00
73817;BME280;62146;53.232;-1.304;2023-04-15T08:24:17;100782.28;;;8.31;100.00
73817;BME280;62146;53.232;-1.304;2023-04-15T08:26:44;100778.41;;;8.34;100.00
73817;BME280;62146;53.232;-1.304;2023-04-15T08:29:12;100791.16;;;8.37;100.00
73817;BME280;62146;53.232;-1.304;2023-04-15T08:31:38;100792.56;;;8.39;100.00
73817;BME280;62146;53.232;-1.304;2023-04-15T08:34:05;100782.16;;;8.44;100.00
73817;BME280;62146;53.232;-1.304;2023-04-15T08:36:31;100792.06;;;8.49;100.00
73817;BME280;62146;53.232;-1.304;2023-04-15T08:38:58;100793.25;;;8.53;100.00
73817;BME280;62146;53.232;-1.304;2023-04-15T08:41:28;100792.63;;;8.57;100.00
73817;BME280;62146;53.232;-1.304;2023-04-15T08:43:58;100798.88;;;8.62;100.00
73817;BME280;62146;53.232;-1.304;2023-04-15T08:46:26;100802.47;;;8.68;100.00
73817;BME280;62146;53.232;-1.304;2023-04-15T08:48:56;100806.53;;;8.70;100.00
73817;BME280;62146;53.232;-1.304;2023-04-15T08:51:23;100812.56;;;8.77;100.00
73817;BME280;62146;53.232;-1.304;2023-04-15T08:53:50;100820.44;;;8.83;100.00
73817;BME280;62146;53.232;-1.304;2023-04-15T08:56:18;100815.06;;;8.90;100.00
73817;BME280;62146;53.232;-1.304;2023-04-15T08:58:45;100825.34;;;8.98;100.00
73817;BME280;62146;53.232;-1.304;2023-04-15T09:01:13;100818.19;;;9.05;100.00
73817;BME280;62146;53.232;-1.304;2023-04-15T09:03:40;100831.13;;;9.12;100.00
73817;BME280;62146;53.232;-1.304;2023-04-15T09:06:07;100836.34;;;9.19;100.00
73817;BME280;62146;53.232;-1.304;2023-04-15T09:08:33;100841.34;;;9.27;100.00
73817;BME280;62146;53.232;-1.304;2023-04-15T09:11:01;100851.63;;;9.35;100.00
73817;BME280;62146;53.232;-1.304;2023-04-15T09:13:28;100848.69;;;9.42;100.00
73817;BME280;62146;53.232;-1.304;2023-04-15T09:15:55;100858.31;;;9.55;100.00
73817;BME280;62146;53.232;-1.304;2023-04-15T09:18:37;100862.19;;;9.70;100.00
73817;BME280;62146;53.232;-1.304;2023-04-15T09:21:11;100864.47;;;9.84;100.00
73817;BME280;62146;53.232;-1.304;2023-04-15T09:23:40;100865.34;;;9.96;100.00
73817;BME280;62146;53.232;-1.304;2023-04-15T09:26:07;100870.72;;;10.07;100.00
73817;BME280;62146;53.232;-1.304;2023-04-15T09:28:41;100870.38;;;10.15;100.00
73817;BME280;62146;53.232;-1.304;2023-04-15T09:31:08;100866.63;;;10.22;100.00
73817;BME280;62146;53.232;-1.304;2023-04-15T09:33:53;100861.00;;;10.30;100.00
73817;BME280;62146;53.232;-1.304;2023-04-15T09:36:20;100865.16;;;10.38;100.00
73817;BME280;62146;53.232;-1.304;2023-04-15T09:38:56;100868.88;;;10.48;100.00
73817;BME280;62146;53.232;-1.304;2023-04-15T09:41:24;100868.09;;;10.59;100.00
73817;BME280;62146;53.232;-1.304;2023-04-15T09:43:51;100875.84;;;10.71;100.00
73817;BME280;62146;53.232;-1.304;2023-04-15T09:46:18;100872.97;;;10.84;100.00
73817;BME280;62146;53.232;-1.304;2023-04-15T09:48:45;100880.94;;;10.96;100.00
73817;BME280;62146;53.232;-1.304;2023-04-15T09:51:11;100879.34;;;11.06;100.00
73817;BME280;62146;53.232;-1.304;2023-04-15T09:53:38;100884.88;;;11.16;100.00
73817;BME280;62146;53.232;-1.304;2023-04-15T09:56:05;100886.34;;;11.23;100.00
73817;BME280;62146;53.232;-1.304;2023-04-15T09:58:34;100889.25;;;11.33;100.00
73817;BME280;62146;53.232;-1.304;2023-04-15T10:01:03;100891.81;;;11.39;100.00
73817;BME280;62146;53.232;-1.304;2023-04-15T10:03:33;100895.13;;;11.46;100.00
73817;BME280;62146;53.232;-1.304;2023-04-15T10:06:03;100895.84;;;11.53;100.00
73817;BME280;62146;53.232;-1.304;2023-04-15T10:08:33;100896.50;;;11.60;100.00
73817;BME280;62146;53.232;-1.304;2023-04-15T10:11:03;100895.59;;;11.66;100.00
73817;BME280;62146;53.232;-1.304;2023-04-15T10:13:31;100913.25;;;11.72;100.00
73817;BME280;62146;53.232;-1.304;2023-04-15T10:16:09;100899.03;;;11.77;100.00
73817;BME280;62146;53.232;-1.304;2023-04-15T10:18:42;100896.22;;;11.84;100.00
73817;BME280;62146;53.232;-1.304;2023-04-15T10:21:09;100898.28;;;11.93;100.00
73817;BME280;62146;53.232;-1.304;2023-04-15T10:23:37;100902.78;;;12.04;100.00
73817;BME280;62146;53.232;-1.304;2023-04-15T10:26:04;100908.03;;;12.15;100.00
73817;BME280;62146;53.232;-1.304;2023-04-15T10:28:33;100909.94;;;12.31;100.00
73817;BME280;62146;53.232;-1.304;2023-04-15T10:31:00;100915.75;;;12.44;100.00
73817;BME280;62146;53.232;-1.304;2023-04-15T10:33:27;100926.69;;;12.59;100.00
73817;BME280;62146;53.232;-1.304;2023-04-15T10:35:55;100918.38;;;12.72;100.00
73817;BME280;62146;53.232;-1.304;2023-04-15T10:38:41;100918.94;;;12.85;100.00
73817;BME280;62146;53.232;-1.304;2023-04-15T10:44:04;100919.03;;;13.06;100.00
73817;BME280;62146;53.232;-1.304;2023-04-15T10:46:43;100925.38;;;13.05;100.00
73817;BME280;62146;53.232;-1.304;2023-04-15T10:49:13;100919.56;;;13.08;100.00
73817;BME280;62146;53.232;-1.304;2023-04-15T10:51:42;100919.66;;;13.29;100.00
73817;BME280;62146;53.232;-1.304;2023-04-15T10:54:15;100926.97;;;13.38;100.00
73817;BME280;62146;53.232;-1.304;2023-04-15T10:56:43;100922.13;;;13.52;100.00
73817;BME280;62146;53.232;-1.304;2023-04-15T10:59:10;100925.47;;;13.64;100.00
73817;BME280;62146;53.232;-1.304;2023-04-15T11:02:11;100939.25;;;13.77;100.00
73817;BME280;62146;53.232;-1.304;2023-04-15T11:05:05;100936.53;;;13.93;100.00
73817;BME280;62146;53.232;-1.304;2023-04-15T11:12:40;100940.59;;;14.17;100.00
73817;BME280;62146;53.232;-1.304;2023-04-15T11:15:45;100947.47;;;14.13;100.00
73817;BME280;62146;53.232;-1.304;2023-04-15T11:20:44;100959.38;;;14.26;100.00
73817;BME280;62146;53.232;-1.304;2023-04-15T11:23:11;100957.38;;;14.38;100.00
73817;BME280;62146;53.232;-1.304;2023-04-15T11:25:41;100962.13;;;14.57;100.00
73817;BME280;62146;53.232;-1.304;2023-04-15T11:28:10;100963.72;;;15.05;100.00
73817;BME280;62146;53.232;-1.304;2023-04-15T11:30:38;100973.00;;;15.29;100.00
73817;BME280;62146;53.232;-1.304;2023-04-15T11:33:06;100973.00;;;15.29;100.00
73817;BME280;62146;53.232;-1.304;2023-04-15T11:35:34;100974.09;;;15.33;100.00
73817;BME280;62146;53.232;-1.304;2023-04-15T11:38:12;100978.94;;;15.36;100.00
73817;BME280;62146;53.232;-1.304;2023-04-15T11:40:40;100990.28;;;15.53;100.00
73817;BME280;62146;53.232;-1.304;2023-04-15T11:45:48;100983.84;;;15.94;100.00
73817;BME280;62146;53.232;-1.304;2023-04-15T11:48:15;100987.03;;;15.86;100.00
73817;BME280;62146;53.232;-1.304;2023-04-15T11:50:42;100987.38;;;16.00;100.00
73817;BME280;62146;53.232;-1.304;2023-04-15T11:53:11;100995.41;;;16.00;100.00
73817;BME280;62146;53.232;-1.304;2023-04-15T11:55:45;100994.09;;;16.07;100.00
73817;BME280;62146;53.232;-1.304;2023-04-15T11:58:18;101000.69;;;15.90;100.00
73817;BME280;62146;53.232;-1.304;2023-04-15T12:03:17;100999.69;;;16.01;100.00
73817;BME280;62146;53.232;-1.304;2023-04-15T12:11:19;101012.78;;;15.97;100.00
73817;BME280;62146;53.232;-1.304;2023-04-15T12:13:48;101017.31;;;15.92;100.00
73817;BME280;62146;53.232;-1.304;2023-04-15T12:16:18;101018.59;;;15.84;100.00
73817;BME280;62146;53.232;-1.304;2023-04-15T12:18:46;101020.00;;;15.97;100.00
73817;BME280;62146;53.232;-1.304;2023-04-15T12:21:13;101026.72;;;16.04;100.00
73817;BME280;62146;53.232;-1.304;2023-04-15T12:23:54;101027.47;;;15.95;100.00
73817;BME280;62146;53.232;-1.304;2023-04-15T12:26:28;101032.78;;;15.85;100.00
73817;BME280;62146;53.232;-1.304;2023-04-15T12:29:06;101034.06;;;15.78;100.00
73817;BME280;62146;53.232;-1.304;2023-04-15T12:32:18;101034.09;;;15.82;100.00
73817;BME280;62146;53.232;-1.304;2023-04-15T12:34:39;101030.53;;;15.72;100.00
73817;BME280;62146;53.232;-1.304;2023-04-15T12:37:08;101033.44;;;15.66;100.00
73817;BME280;62146;53.232;-1.304;2023-04-15T12:39:41;101031.09;;;15.74;100.00
73817;BME280;62146;53.232;-1.304;2023-04-15T12:42:08;101033.28;;;15.82;100.00
73817;BME280;62146;53.232;-1.304;2023-04-15T12:44:36;101041.31;;;15.87;100.00
73817;BME280;62146;53.232;-1.304;2023-04-15T12:47:03;101036.47;;;15.84;100.00
73817;BME280;62146;53.232;-1.304;2023-04-15T12:49:30;101037.03;;;15.86;100.00
73817;BME280;62146;53.232;-1.304;2023-04-15T12:51:59;101029.13;;;16.01;100.00
73817;BME280;62146;53.232;-1.304;2023-04-15T12:54:27;101039.34;;;16.08;100.00
73817;BME280;62146;53.232;-1.304;2023-04-15T12:56:54;101029.75;;;16.12;100.00
73817;BME280;62146;53.232;-1.304;2023-04-15T12:59:21;101033.50;;;16.11;100.00
73817;BME280;62146;53.232;-1.304;2023-04-15T13:01:49;101037.72;;;16.08;100.00
73817;BME280;62146;53.232;-1.304;2023-04-15T13:04:18;101032.72;;;16.21;100.00